Darstellungsparameter: Aktuell verwendete Einstellungen:
Skalierung der Graphiken ... ?
xyx+y,   Skalierungsfaktor:      Skalierung: Modus: x, Faktor: 1
Darstellungszeitraum ... ?
Vom - - bis: - -   Zeitraum: 02.03.2021 - 02.03.2021
Min/Max/Avg-Anzeige ... ?
Zeige MMA aktuell
Zeige MMA Monat
Zeige MMA alles
Zeige --A aktuell
Zeige --A Monat
Zeige --A alles
Keine MMA-Anzeige
MMA:
Minimum Maximum Average (ber die Originaldaten)
MMA-Basis: 02.03.2021 - 02.03.2021
Quicknavigation für Darstellung... ?
Tage:      1T, 2T, 3T, 5T -1T -2T -3T -5T +1T +2T +3T +5T
Wochen: 1W, 2W, 3W -1W -2W -3W +1W +2W +3W
Monate: 1M, 3M, 6M -1M -3M -6M +1M +3M +6M
Jahre:    1J, 3J, 5J, 10J -1J -3J -5J -10J +1J +3J +5J +10J
Nutze für die Darstellung ... ?
Originaldaten oder Mittelwerte auf ...
Stundenbasis Tagesbasis Wochenbasis
Monatsbasis Jahresbasis      Datenbasis: Original-Daten
Darstellen als:
Statistik (Auto) Statistik J:M      Darstellung:

Der gewünschte Datumsbereich war nicht gültig/verfügbar und wurde korrigiert....
Das angegebene Enddatum (15.08.2029 23:59:59) liegt in der Zukunft.
Das angegebene Startdatum (16.02.2029 00:00:00) liegt in der Zukunft.


Zur Graphik,    zurück zur Übersicht aller Sensoren.
 
Tabellarische Datenbersicht: ?
 
Sensor: Nr:Datum:Temp:Feuchte:Taupunkt:
Aussen-T/F 1 02-03-2021 01:00:00 1.8 C 93 % 0.79 C
2 02-03-2021 01:05:00 1.8 C 93 % 0.79 C
3 02-03-2021 01:10:00 1.8 C 93 % 0.79 C
4 02-03-2021 01:15:00 1.8 C 93 % 0.79 C
5 02-03-2021 01:20:00 1.7 C 93 % 0.69 C
6 02-03-2021 01:25:00 1.7 C 93 % 0.69 C
7 02-03-2021 01:30:00 1.7 C 94 % 0.84 C
8 02-03-2021 01:35:00 1.7 C 94 % 0.84 C
9 02-03-2021 01:40:00 1.6 C 94 % 0.74 C
10 02-03-2021 01:45:00 1.6 C 94 % 0.74 C
11 02-03-2021 01:50:00 1.4 C 94 % 0.54 C
12 02-03-2021 01:55:00 1.4 C 94 % 0.54 C
13 02-03-2021 02:00:00 1.3 C 94 % 0.44 C
14 02-03-2021 02:05:00 1.2 C 94 % 0.34 C
15 02-03-2021 02:10:00 1.3 C 94 % 0.44 C
16 02-03-2021 02:15:00 1.3 C 94 % 0.44 C
17 02-03-2021 02:20:00 1.2 C 94 % 0.34 C
18 02-03-2021 02:25:00 1.1 C 94 % 0.24 C
19 02-03-2021 02:30:00 1 C 94 % 0.15 C
20 02-03-2021 02:35:00 0.9 C 94 % 0.05 C
21 02-03-2021 02:40:00 0.8 C 94 % -0.05 C
22 02-03-2021 02:45:00 0.7 C 94 % -0.15 C
23 02-03-2021 02:50:00 0.6 C 94 % -0.25 C
24 02-03-2021 02:55:00 0.6 C 94 % -0.25 C
25 02-03-2021 03:00:00 0.6 C 94 % -0.25 C
Sensor: Nr:Datum:Temp:Feuchte:Taupunkt:
Aussen-T/F 26 02-03-2021 03:05:00 0.6 C 94 % -0.25 C
27 02-03-2021 03:10:00 0.4 C 94 % -0.45 C
28 02-03-2021 03:15:00 0.4 C 94 % -0.45 C
29 02-03-2021 03:20:00 0.3 C 94 % -0.55 C
30 02-03-2021 03:25:00 0.3 C 94 % -0.55 C
31 02-03-2021 03:30:00 0.3 C 94 % -0.55 C
32 02-03-2021 03:35:00 0.2 C 94 % -0.65 C
33 02-03-2021 03:40:00 0.2 C 94 % -0.65 C
34 02-03-2021 03:45:00 0.2 C 94 % -0.65 C
35 02-03-2021 03:50:00 0.2 C 95 % -0.5 C
36 02-03-2021 03:55:00 0.2 C 94 % -0.65 C
37 02-03-2021 04:00:00 0.2 C 94 % -0.65 C
38 02-03-2021 04:05:00 0.1 C 95 % -0.6 C
39 02-03-2021 04:10:00 0.1 C 95 % -0.6 C
40 02-03-2021 04:15:00 0.1 C 95 % -0.6 C
41 02-03-2021 04:20:00 0.1 C 95 % -0.6 C
42 02-03-2021 04:25:00 0.1 C 95 % -0.6 C
43 02-03-2021 04:30:00 0.1 C 95 % -0.6 C
44 02-03-2021 04:35:00 0.1 C 95 % -0.6 C
45 02-03-2021 04:40:00 -0.1 C 95 % -0.8 C
46 02-03-2021 04:45:00 -0.1 C 95 % -0.8 C
47 02-03-2021 04:50:00 -0.2 C 95 % -0.9 C
48 02-03-2021 04:55:00 -0.2 C 95 % -0.9 C
49 02-03-2021 05:00:00 -0.3 C 95 % -1 C
50 02-03-2021 05:05:00 -0.3 C 95 % -1 C
Sensor: Nr:Datum:Temp:Feuchte:Taupunkt:
Aussen-T/F 51 02-03-2021 05:10:00 -0.3 C 95 % -1 C
52 02-03-2021 05:15:00 -0.3 C 95 % -1 C
53 02-03-2021 05:20:00 -0.3 C 95 % -1 C
54 02-03-2021 05:25:00 -0.3 C 95 % -1 C
55 02-03-2021 05:30:00 -0.3 C 95 % -1 C
56 02-03-2021 05:35:00 -0.3 C 95 % -1 C
57 02-03-2021 05:40:00 -0.3 C 95 % -1 C
58 02-03-2021 05:45:00 -0.4 C 95 % -1.1 C
59 02-03-2021 05:50:00 -0.4 C 95 % -1.1 C
60 02-03-2021 05:55:00 -0.4 C 95 % -1.1 C
61 02-03-2021 06:00:00 -0.4 C 95 % -1.1 C
62 02-03-2021 06:05:00 -0.4 C 95 % -1.1 C
63 02-03-2021 06:10:00 -0.6 C 95 % -1.3 C
64 02-03-2021 06:15:00 -0.6 C 95 % -1.3 C
65 02-03-2021 06:20:00 -0.5 C 95 % -1.2 C
66 02-03-2021 06:25:00 -0.4 C 95 % -1.1 C
67 02-03-2021 06:30:00 -0.4 C 95 % -1.1 C
68 02-03-2021 06:35:00 -0.4 C 95 % -1.1 C
69 02-03-2021 06:40:00 -0.4 C 95 % -1.1 C
70 02-03-2021 06:45:00 -0.4 C 95 % -1.1 C
71 02-03-2021 06:50:00 -0.5 C 95 % -1.2 C
72 02-03-2021 06:55:00 -0.5 C 95 % -1.2 C
73 02-03-2021 07:00:00 -0.4 C 95 % -1.1 C
74 02-03-2021 07:05:00 -0.4 C 96 % -0.96 C
75 02-03-2021 07:10:00 -0.3 C 96 % -0.86 C
Sensor: Nr:Datum:Temp:Feuchte:Taupunkt:
Aussen-T/F 76 02-03-2021 07:15:00 -0.4 C 96 % -0.96 C
77 02-03-2021 07:20:00 -0.4 C 95 % -1.1 C
78 02-03-2021 07:25:00 -0.6 C 95 % -1.3 C
79 02-03-2021 07:30:00 -0.7 C 95 % -1.4 C
80 02-03-2021 07:35:00 -0.7 C 95 % -1.4 C
81 02-03-2021 07:40:00 -0.7 C 95 % -1.4 C
82 02-03-2021 07:45:00 -0.8 C 95 % -1.5 C
83 02-03-2021 07:50:00 -0.8 C 95 % -1.5 C
84 02-03-2021 07:55:00 -0.8 C 95 % -1.5 C
85 02-03-2021 08:00:00 -0.9 C 95 % -1.6 C
86 02-03-2021 08:05:00 -0.9 C 95 % -1.6 C
87 02-03-2021 08:10:00 -1 C 95 % -1.7 C
88 02-03-2021 08:15:00 -0.9 C 95 % -1.6 C
89 02-03-2021 08:20:00 -0.9 C 95 % -1.6 C
90 02-03-2021 08:25:00 -0.8 C 95 % -1.5 C
91 02-03-2021 08:30:00 -0.8 C 95 % -1.5 C
92 02-03-2021 08:35:00 -0.8 C 95 % -1.5 C
93 02-03-2021 08:40:00 -0.8 C 95 % -1.5 C
94 02-03-2021 08:45:00 -0.8 C 95 % -1.5 C
95 02-03-2021 08:50:00 -0.7 C 96 % -1.26 C
96 02-03-2021 08:55:00 -0.7 C 96 % -1.26 C
97 02-03-2021 09:00:00 -0.6 C 96 % -1.16 C
98 02-03-2021 09:05:00 -0.5 C 96 % -1.06 C
99 02-03-2021 09:10:00 -0.4 C 96 % -0.96 C
100 02-03-2021 09:15:00 -0.3 C 96 % -0.86 C
Sensor: Nr:Datum:Temp:Feuchte:Taupunkt:
Aussen-T/F 101 02-03-2021 09:20:00 -0.2 C 96 % -0.76 C
102 02-03-2021 09:25:00 -0.2 C 96 % -0.76 C
103 02-03-2021 09:30:00 -0.1 C 96 % -0.66 C
104 02-03-2021 09:35:00 0 C 96 % -0.56 C
105 02-03-2021 09:40:00 0.1 C 96 % -0.46 C
106 02-03-2021 09:45:00 0.3 C 96 % -0.26 C
107 02-03-2021 09:50:00 0.4 C 96 % -0.16 C
108 02-03-2021 09:55:00 0.5 C 96 % -0.06 C
109 02-03-2021 10:00:00 0.7 C 96 % 0.14 C
110 02-03-2021 10:05:00 0.8 C 96 % 0.24 C
111 02-03-2021 10:10:00 0.9 C 96 % 0.34 C
112 02-03-2021 10:15:00 1 C 96 % 0.44 C
113 02-03-2021 10:20:00 1.2 C 96 % 0.63 C
114 02-03-2021 10:25:00 1.3 C 96 % 0.73 C
115 02-03-2021 10:30:00 1.6 C 97 % 1.18 C
116 02-03-2021 10:35:00 1.8 C 97 % 1.38 C
117 02-03-2021 10:40:00 2.1 C 97 % 1.67 C
118 02-03-2021 10:45:00 2.3 C 97 % 1.87 C
119 02-03-2021 10:50:00 2.7 C 97 % 2.27 C
120 02-03-2021 10:55:00 3.1 C 97 % 2.67 C
121 02-03-2021 11:00:00 3.4 C 97 % 2.97 C
122 02-03-2021 11:05:00 3.7 C 97 % 3.27 C
123 02-03-2021 11:10:00 4 C 97 % 3.57 C
124 02-03-2021 11:15:00 4.4 C 97 % 3.97 C
125 02-03-2021 11:20:00 4.8 C 97 % 4.37 C
Sensor: Nr:Datum:Temp:Feuchte:Taupunkt:
Aussen-T/F 126 02-03-2021 11:25:00 5.2 C 97 % 4.76 C
127 02-03-2021 11:30:00 5.6 C 97 % 5.16 C
128 02-03-2021 11:35:00 5.9 C 97 % 5.46 C
129 02-03-2021 11:40:00 6.2 C 97 % 5.76 C
130 02-03-2021 11:45:00 6.3 C 97 % 5.86 C
131 02-03-2021 11:50:00 6.5 C 97 % 6.06 C
132 02-03-2021 11:55:00 6.7 C 97 % 6.26 C
133 02-03-2021 12:00:00 6.9 C 97 % 6.46 C
134 02-03-2021 12:05:00 7.1 C 97 % 6.66 C
135 02-03-2021 12:10:00 7.4 C 97 % 6.96 C
136 02-03-2021 12:15:00 7.7 C 96 % 7.1 C
137 02-03-2021 12:20:00 8.1 C 95 % 7.35 C
138 02-03-2021 12:25:00 8.4 C 94 % 7.49 C
139 02-03-2021 12:30:00 8.9 C 91 % 7.51 C
140 02-03-2021 12:35:00 9.4 C 90 % 7.85 C
141 02-03-2021 12:40:00 10.1 C 87 % 8.04 C
142 02-03-2021 12:45:00 10.7 C 84 % 8.11 C
143 02-03-2021 12:50:00 11.1 C 81 % 7.97 C
144 02-03-2021 12:55:00 11.3 C 80 % 7.98 C
145 02-03-2021 13:00:00 11.6 C 79 % 8.09 C
146 02-03-2021 13:05:00 12 C 77 % 8.1 C
147 02-03-2021 13:10:00 12.3 C 75 % 8 C
148 02-03-2021 13:15:00 12.6 C 74 % 8.09 C
149 02-03-2021 13:20:00 12.9 C 73 % 8.18 C
150 02-03-2021 13:25:00 13.4 C 71 % 8.26 C
Sensor: Nr:Datum:Temp:Feuchte:Taupunkt:
Aussen-T/F 151 02-03-2021 13:30:00 13.8 C 70 % 8.43 C
152 02-03-2021 13:35:00 14.3 C 67 % 8.26 C
153 02-03-2021 13:40:00 14.7 C 66 % 8.42 C
154 02-03-2021 13:45:00 14.9 C 65 % 8.39 C
155 02-03-2021 13:50:00 15.2 C 59 % 7.25 C
156 02-03-2021 13:55:00 15.4 C 60 % 7.68 C
157 02-03-2021 14:00:00 15.6 C 58 % 7.37 C
158 02-03-2021 14:05:00 15.8 C 61 % 8.3 C
159 02-03-2021 14:10:00 16.1 C 59 % 8.09 C
160 02-03-2021 14:15:00 16.5 C 58 % 8.22 C
161 02-03-2021 14:20:00 16.8 C 53 % 7.18 C
162 02-03-2021 14:25:00 16.6 C 51 % 6.43 C
163 02-03-2021 14:30:00 16.2 C 51 % 6.06 C
164 02-03-2021 14:35:00 16.1 C 52 % 6.25 C
165 02-03-2021 14:40:00 16.2 C 52 % 6.34 C
166 02-03-2021 14:45:00 16.2 C 53 % 6.62 C
167 02-03-2021 14:50:00 16.1 C 52 % 6.25 C
168 02-03-2021 14:55:00 15.9 C 53 % 6.34 C
169 02-03-2021 15:00:00 15.8 C 54 % 6.52 C
170 02-03-2021 15:05:00 15.7 C 56 % 6.96 C
171 02-03-2021 15:10:00 15.6 C 59 % 7.62 C
172 02-03-2021 15:15:00 15.4 C 54 % 6.15 C
173 02-03-2021 15:20:00 15.4 C 53 % 5.88 C
174 02-03-2021 15:25:00 15.4 C 53 % 5.88 C
175 02-03-2021 15:30:00 15.4 C 51 % 5.33 C
Sensor: Nr:Datum:Temp:Feuchte:Taupunkt:
Aussen-T/F 176 02-03-2021 15:35:00 15.5 C 52 % 5.7 C
177 02-03-2021 15:40:00 15.6 C 54 % 6.34 C
178 02-03-2021 15:45:00 15.7 C 55 % 6.69 C
179 02-03-2021 15:50:00 15.7 C 57 % 7.21 C
180 02-03-2021 15:55:00 15.8 C 57 % 7.31 C
181 02-03-2021 16:00:00 15.9 C 56 % 7.14 C
182 02-03-2021 16:05:00 16 C 51 % 5.88 C
183 02-03-2021 16:10:00 16.1 C 56 % 7.33 C
184 02-03-2021 16:15:00 16 C 55 % 6.97 C
185 02-03-2021 16:20:00 15.9 C 54 % 6.61 C
186 02-03-2021 16:25:00 15.8 C 58 % 7.56 C
187 02-03-2021 16:30:00 15.7 C 55 % 6.69 C
188 02-03-2021 16:35:00 15.7 C 59 % 7.72 C
189 02-03-2021 16:40:00 15.6 C 60 % 7.87 C
190 02-03-2021 16:45:00 15.4 C 59 % 7.44 C
191 02-03-2021 16:50:00 15.3 C 55 % 6.32 C
192 02-03-2021 16:55:00 15.3 C 59 % 7.34 C
193 02-03-2021 17:00:00 15.2 C 59 % 7.25 C
194 02-03-2021 17:05:00 15.1 C 59 % 7.16 C
195 02-03-2021 17:10:00 15 C 60 % 7.31 C
196 02-03-2021 17:15:00 14.9 C 61 % 7.45 C
197 02-03-2021 17:20:00 14.9 C 60 % 7.21 C
198 02-03-2021 17:25:00 14.8 C 61 % 7.36 C
199 02-03-2021 17:30:00 14.6 C 58 % 6.44 C
200 02-03-2021 17:35:00 14.5 C 61 % 7.08 C
Sensor: Nr:Datum:Temp:Feuchte:Taupunkt:
Aussen-T/F 201 02-03-2021 17:40:00 14.3 C 60 % 6.65 C
202 02-03-2021 17:45:00 14.1 C 62 % 6.94 C
203 02-03-2021 17:50:00 13.7 C 62 % 6.56 C
204 02-03-2021 17:55:00 13.2 C 63 % 6.32 C
205 02-03-2021 18:00:00 12.7 C 64 % 6.07 C
206 02-03-2021 18:05:00 12.2 C 66 % 6.04 C
207 02-03-2021 18:10:00 11.7 C 67 % 5.78 C
208 02-03-2021 18:15:00 11.3 C 68 % 5.62 C
209 02-03-2021 18:20:00 10.9 C 69 % 5.44 C
210 02-03-2021 18:25:00 10.7 C 70 % 5.46 C
211 02-03-2021 18:30:00 10.5 C 71 % 5.47 C
212 02-03-2021 18:35:00 10.3 C 71 % 5.28 C
213 02-03-2021 18:40:00 10.2 C 72 % 5.39 C
214 02-03-2021 18:45:00 9.9 C 73 % 5.29 C
215 02-03-2021 18:50:00 9.8 C 73 % 5.2 C
216 02-03-2021 18:55:00 9.6 C 74 % 5.2 C
217 02-03-2021 19:00:00 9.4 C 74 % 5.01 C
218 02-03-2021 19:05:00 9.3 C 75 % 5.1 C
219 02-03-2021 19:10:00 9.2 C 75 % 5.01 C
220 02-03-2021 19:15:00 9 C 75 % 4.81 C
221 02-03-2021 19:20:00 8.9 C 76 % 4.91 C
222 02-03-2021 19:25:00 8.8 C 77 % 5 C
223 02-03-2021 19:30:00 8.7 C 77 % 4.9 C
224 02-03-2021 19:35:00 8.6 C 77 % 4.8 C
225 02-03-2021 19:40:00 8.5 C 77 % 4.71 C
Sensor: Nr:Datum:Temp:Feuchte:Taupunkt:
Aussen-T/F 226 02-03-2021 19:45:00 8.4 C 79 % 4.98 C
227 02-03-2021 19:50:00 8.3 C 79 % 4.88 C
228 02-03-2021 19:55:00 8.2 C 80 % 4.96 C
229 02-03-2021 20:00:00 8.1 C 80 % 4.86 C
230 02-03-2021 20:05:00 7.9 C 80 % 4.67 C
231 02-03-2021 20:10:00 7.8 C 81 % 4.75 C
232 02-03-2021 20:15:00 7.7 C 81 % 4.65 C
233 02-03-2021 20:20:00 7.6 C 82 % 4.73 C
234 02-03-2021 20:25:00 7.5 C 82 % 4.63 C
235 02-03-2021 20:30:00 7.4 C 82 % 4.53 C
236 02-03-2021 20:35:00 7.3 C 82 % 4.44 C
237 02-03-2021 20:40:00 7.3 C 82 % 4.44 C
238 02-03-2021 20:45:00 7.2 C 83 % 4.51 C
239 02-03-2021 20:50:00 7.2 C 83 % 4.51 C
240 02-03-2021 20:55:00 7.1 C 83 % 4.41 C
241 02-03-2021 21:00:00 7.1 C 83 % 4.41 C
242 02-03-2021 21:05:00 6.9 C 83 % 4.22 C
243 02-03-2021 21:10:00 6.8 C 83 % 4.12 C
244 02-03-2021 21:15:00 6.6 C 83 % 3.92 C
245 02-03-2021 21:20:00 6.4 C 84 % 3.9 C

Legende:
   Min
   Max


Maximal/Minimal-Werte vom 02.03.2021 - 02.03.2021

Sensor Min Max Avg
Temp
(Aussen-T/F)
-1 °C
02-03-2021  08:10:00
16.8 °C
02-03-2021  14:20:00
5.98 °C
Feuchte
(Aussen-T/F)
51 %
02-03-2021  14:25:00
97 %
02-03-2021  10:30:00
83.06 %
Taupunkt
(Aussen-T/F)
-1.7 C
02-03-2021  08:10:00
8.43 C
02-03-2021  13:30:00
2.92 C

Die Daten stammen von einer Davis Vantage Pro 2 Wetter-Station und werden unter Linux mit der Software wview2wettercgi und aufbereitet. Alle Angaben erfolgen ohne Gewähr für ihre Vollständigkeit oder Richtigkeit.
Kontakt: Rainer Krienke krienke@uni-koblenz.de . Meine Webseiten an der Uni Koblenz oder privat.
Version: $Revision: 0.78 $